createdAt,value
2018-11-03T00:00:04.604Z,18.1
2018-11-03T00:00:25.403Z,18.200001
2018-11-03T00:00:45.440Z,17.5
2018-11-03T00:01:05.098Z,13.1
2018-11-03T00:01:25.137Z,10.5
2018-11-03T00:01:45.137Z,9.5
2018-11-03T00:02:04.999Z,7.8
2018-11-03T00:02:24.931Z,7.8
2018-11-03T00:02:44.801Z,7.1
2018-11-03T00:03:04.663Z,7.7
2018-11-03T00:03:24.568Z,7.4
2018-11-03T00:03:44.536Z,7.3
2018-11-03T00:04:04.461Z,7.6
2018-11-03T00:04:24.397Z,7.9
2018-11-03T00:04:44.338Z,7.6
2018-11-03T00:05:04.393Z,7.5
2018-11-03T00:05:24.442Z,7.2
2018-11-03T00:05:44.335Z,7.1
2018-11-03T00:06:05.270Z,7.2
2018-11-03T00:06:26.616Z,7.3
2018-11-03T00:06:46.253Z,7.3
2018-11-03T00:07:06.124Z,7
2018-11-03T00:07:25.941Z,7.5
2018-11-03T00:07:46.077Z,8.6
2018-11-03T00:08:05.804Z,7.6
2018-11-03T00:08:25.605Z,7
2018-11-03T00:08:45.409Z,6.9
2018-11-03T00:09:05.060Z,7.1
2018-11-03T00:09:24.720Z,6.9
2018-11-03T00:09:44.638Z,7.3
2018-11-03T00:10:04.398Z,7.2
2018-11-03T00:10:23.978Z,7.2
2018-11-03T00:10:43.584Z,7.4
2018-11-03T00:11:03.154Z,7.5
2018-11-03T00:11:23.732Z,7.1
2018-11-03T00:11:43.523Z,7.4
2018-11-03T00:12:03.259Z,7.7
2018-11-03T00:12:23.068Z,7.2
2018-11-03T00:12:42.730Z,7.2
2018-11-03T00:13:02.712Z,7.1
2018-11-03T00:13:22.573Z,7
2018-11-03T00:13:42.377Z,7.3
2018-11-03T00:14:02.614Z,7.5
2018-11-03T00:14:22.734Z,7.6
2018-11-03T00:14:43.117Z,7.5
2018-11-03T00:15:02.938Z,7.4
2018-11-03T00:15:22.575Z,7.3
2018-11-03T00:15:43.571Z,7.8
2018-11-03T00:16:03.719Z,7.7
2018-11-03T00:16:23.651Z,7.5
2018-11-03T00:16:43.377Z,7.7
2018-11-03T00:17:03.139Z,7.3
2018-11-03T00:17:22.965Z,7.1
2018-11-03T00:17:42.890Z,7.4
2018-11-03T00:18:02.399Z,7.2
2018-11-03T00:18:22.255Z,7.3
2018-11-03T00:18:43.149Z,7.4
2018-11-03T00:19:03.102Z,7.3
2018-11-03T00:19:22.954Z,6.8
2018-11-03T00:19:42.522Z,6.9
2018-11-03T00:20:02.330Z,7.6
2018-11-03T00:20:22.001Z,7.9
2018-11-03T00:20:41.977Z,7.5
2018-11-03T00:21:01.832Z,7.5
2018-11-03T00:21:21.462Z,7.6
2018-11-03T00:21:41.178Z,7.5
2018-11-03T00:22:00.990Z,7.6
2018-11-03T00:22:20.620Z,7.4
2018-11-03T00:22:40.243Z,7.2
2018-11-03T00:22:59.905Z,7.3
2018-11-03T00:23:19.529Z,7.3
2018-11-03T00:23:39.224Z,7.6
2018-11-03T00:23:58.881Z,7.7
2018-11-03T00:24:18.499Z,7.5
2018-11-03T00:24:38.130Z,7.4
2018-11-03T00:24:57.741Z,7.3
2018-11-03T00:25:17.354Z,7.4
2018-11-03T00:25:36.991Z,7.8
2018-11-03T00:25:57.602Z,7.3
2018-11-03T00:26:17.552Z,6.8
2018-11-03T00:26:37.358Z,7.3
2018-11-03T00:26:57.119Z,6.9
2018-11-03T00:27:16.766Z,7
2018-11-03T00:27:36.305Z,7.1
2018-11-03T00:27:56.024Z,7.3
2018-11-03T00:28:15.888Z,7
2018-11-03T00:28:35.588Z,6.8
2018-11-03T00:28:56.227Z,7.1
2018-11-03T00:29:16.874Z,7.3
2018-11-03T00:29:36.656Z,7.2
2018-11-03T00:29:56.622Z,6.9
2018-11-03T00:30:17.297Z,6.9
2018-11-03T00:30:36.826Z,7.1
2018-11-03T00:30:56.668Z,7.2
2018-11-03T00:31:16.387Z,7.3
2018-11-03T00:31:35.930Z,7.2
2018-11-03T00:31:55.808Z,7
2018-11-03T00:32:15.378Z,7
2018-11-03T00:32:34.984Z,7.2
2018-11-03T00:32:54.658Z,7.2
2018-11-03T00:33:14.245Z,7.3
2018-11-03T00:33:33.960Z,7.3
2018-11-03T00:33:53.506Z,7.2
2018-11-03T00:34:13.053Z,6.7
2018-11-03T00:34:32.690Z,6.9
2018-11-03T00:34:52.250Z,7.2
2018-11-03T00:35:11.785Z,7
2018-11-03T00:35:31.417Z,7.3
2018-11-03T00:35:51.213Z,7.4
2018-11-03T00:36:10.888Z,6.9
2018-11-03T00:36:30.431Z,8.1
2018-11-03T00:36:50.111Z,7.9
2018-11-03T00:37:09.809Z,8.2
2018-11-03T00:37:29.439Z,7.9
2018-11-03T00:37:49.210Z,7.7
2018-11-03T00:38:09.447Z,13.1
2018-11-03T00:38:29.033Z,21.799999
2018-11-03T00:38:48.573Z,23.5
2018-11-03T00:39:08.139Z,17.200001
2018-11-03T00:39:28.397Z,23.299999
2018-11-03T00:39:47.977Z,20.299999
2018-11-03T00:40:07.632Z,17.299999
2018-11-03T00:40:27.258Z,20.4
2018-11-03T00:40:46.837Z,16.700001
2018-11-03T00:41:07.033Z,21.799999
2018-11-03T00:41:26.590Z,18.5
2018-11-03T00:41:46.645Z,14.7
2018-11-03T00:42:06.221Z,19.299999
2018-11-03T00:42:25.765Z,17
2018-11-03T00:42:45.535Z,14.9
2018-11-03T00:43:05.066Z,18.700001
2018-11-03T00:43:25.585Z,29.5
2018-11-03T00:43:46.295Z,19.5
2018-11-03T00:44:05.914Z,15.8
2018-11-03T00:44:25.497Z,16.1
2018-11-03T00:44:45.159Z,14.6
2018-11-03T00:45:05.684Z,11.3
2018-11-03T00:45:25.249Z,9.2
2018-11-03T00:45:45.264Z,7.8
2018-11-03T00:46:04.812Z,7.4
2018-11-03T00:46:24.331Z,7.6
2018-11-03T00:46:43.817Z,7.6
2018-11-03T00:47:03.387Z,7.7
2018-11-03T00:47:22.935Z,8.1
2018-11-03T00:47:42.602Z,8.1
2018-11-03T00:48:02.130Z,7.7
2018-11-03T00:48:21.701Z,7.4
2018-11-03T00:48:41.223Z,7.4
2018-11-03T00:49:00.729Z,7.6
2018-11-03T00:49:20.257Z,7.9
2018-11-03T00:49:39.935Z,7.6
2018-11-03T00:49:59.441Z,7.6
2018-11-03T00:50:18.977Z,7.7
2018-11-03T00:50:38.495Z,7.4
2018-11-03T00:50:58.018Z,7.7
2018-11-03T00:51:17.576Z,7.5
2018-11-03T00:51:37.131Z,7.6
2018-11-03T00:51:56.651Z,7.9
2018-11-03T00:52:16.265Z,7.7
2018-11-03T00:52:35.769Z,7.9
2018-11-03T00:52:55.299Z,7.9
2018-11-03T00:53:14.820Z,7.8
2018-11-03T00:53:34.384Z,7.9
2018-11-03T00:53:53.867Z,7.6
2018-11-03T00:54:13.371Z,7.6
2018-11-03T00:54:32.873Z,8.1
2018-11-03T00:54:52.378Z,10.9
2018-11-03T00:55:11.907Z,11.3
2018-11-03T00:55:31.424Z,11.6
2018-11-03T00:55:50.943Z,10.9
2018-11-03T00:56:10.439Z,9.3
2018-11-03T00:56:29.974Z,9.1
2018-11-03T00:56:49.526Z,9.7
2018-11-03T00:57:09.062Z,11.4
2018-11-03T00:57:28.619Z,14.3
2018-11-03T00:57:48.151Z,12.1
2018-11-03T00:58:07.671Z,9.4
2018-11-03T00:58:27.181Z,10.1
2018-11-03T00:58:46.703Z,9.4
2018-11-03T00:59:06.214Z,8.2
2018-11-03T00:59:25.804Z,8.3
2018-11-03T00:59:45.304Z,9.6
2018-11-03T01:00:04.800Z,10.1
2018-11-03T01:00:24.317Z,8.9
2018-11-03T01:00:43.824Z,9.1
2018-11-03T01:01:03.355Z,8.3
2018-11-03T01:01:22.890Z,7.9
2018-11-03T01:01:42.393Z,8
2018-11-03T01:02:01.929Z,8
2018-11-03T01:02:22.506Z,8.2
2018-11-03T01:02:42.042Z,8.6
2018-11-03T01:03:01.585Z,8.3
2018-11-03T01:03:21.100Z,8.6
2018-11-03T01:03:40.593Z,8.5
2018-11-03T01:04:00.148Z,8.7
2018-11-03T01:04:19.676Z,8.5
2018-11-03T01:04:40.194Z,8.1
2018-11-03T01:04:59.721Z,8.1
2018-11-03T01:05:19.244Z,8.2
2018-11-03T01:05:38.776Z,8
2018-11-03T01:05:58.287Z,8.2
2018-11-03T01:06:17.807Z,8.3
2018-11-03T01:06:37.314Z,7.6
2018-11-03T01:06:56.826Z,8.2
2018-11-03T01:07:17.389Z,8.3
2018-11-03T01:07:36.910Z,9.6
2018-11-03T01:07:56.447Z,11.5
2018-11-03T01:08:15.941Z,10.4
2018-11-03T01:08:35.440Z,9.9
2018-11-03T01:08:55.018Z,9.1
2018-11-03T01:09:14.532Z,8.6
2018-11-03T01:09:34.056Z,8.6
2018-11-03T01:09:53.598Z,8.6
2018-11-03T01:10:13.081Z,8.1
2018-11-03T01:10:32.616Z,8.5
2018-11-03T01:10:52.135Z,8.3
2018-11-03T01:11:11.628Z,8.4
2018-11-03T01:11:31.153Z,8.6
2018-11-03T01:11:50.657Z,8.3
2018-11-03T01:12:10.175Z,8.1
2018-11-03T01:12:29.732Z,8
2018-11-03T01:12:49.226Z,8
2018-11-03T01:13:08.749Z,8.5
2018-11-03T01:13:28.269Z,8.5
2018-11-03T01:13:47.810Z,9.3
2018-11-03T01:14:07.324Z,11.2
2018-11-03T01:14:26.851Z,12.4
2018-11-03T01:14:47.428Z,10.4
2018-11-03T01:15:06.886Z,9
2018-11-03T01:15:26.402Z,9
2018-11-03T01:15:45.919Z,8.7
2018-11-03T01:16:05.442Z,9.3
2018-11-03T01:16:24.981Z,8.6
2018-11-03T01:16:44.480Z,8.6
2018-11-03T01:17:03.996Z,8.9
2018-11-03T01:17:23.518Z,9
2018-11-03T01:17:43.165Z,8.3
2018-11-03T01:18:02.662Z,8.6
2018-11-03T01:18:22.201Z,8.9
2018-11-03T01:18:41.732Z,8.4
2018-11-03T01:19:02.239Z,8.3
2018-11-03T01:19:21.759Z,7.7
2018-11-03T01:19:41.330Z,7.8
2018-11-03T01:20:00.920Z,8.2
2018-11-03T01:20:20.387Z,8.1
2018-11-03T01:20:40.899Z,8.3
2018-11-03T01:21:00.455Z,8.3
2018-11-03T01:21:19.990Z,8.3
2018-11-03T01:21:39.496Z,8
2018-11-03T01:21:59.055Z,7.9
2018-11-03T01:22:18.554Z,8.1
2018-11-03T01:22:38.146Z,7.9
2018-11-03T01:22:57.658Z,8.3
2018-11-03T01:23:17.203Z,8.5
2018-11-03T01:23:36.807Z,7.9
2018-11-03T01:23:56.235Z,8
2018-11-03T01:24:15.723Z,8.4
2018-11-03T01:24:35.227Z,8.1
2018-11-03T01:24:54.756Z,8.5
2018-11-03T01:25:14.261Z,8.1
2018-11-03T01:25:33.752Z,8.2
2018-11-03T01:25:54.234Z,8.4
2018-11-03T01:26:13.750Z,8.9
2018-11-03T01:26:33.291Z,8.8
2018-11-03T01:26:52.881Z,8.1
2018-11-03T01:27:12.401Z,8.4
2018-11-03T01:27:31.961Z,8.3
2018-11-03T01:27:51.562Z,7.8
2018-11-03T01:28:11.073Z,8
2018-11-03T01:28:30.614Z,8.1
2018-11-03T01:28:50.132Z,8.1
2018-11-03T01:29:09.636Z,8.1
2018-11-03T01:29:29.153Z,8
2018-11-03T01:29:48.698Z,8.3
2018-11-03T01:30:08.264Z,8.4
2018-11-03T01:30:27.838Z,8.5
2018-11-03T01:30:47.382Z,8.8
2018-11-03T01:31:06.925Z,8.6
2018-11-03T01:31:26.437Z,8.6
2018-11-03T01:31:45.962Z,8.9
2018-11-03T01:32:05.470Z,8.4
2018-11-03T01:32:25.029Z,8.5
2018-11-03T01:32:44.597Z,8.6
2018-11-03T01:33:04.124Z,8
2018-11-03T01:33:23.691Z,8.3
2018-11-03T01:33:43.231Z,8.5
2018-11-03T01:34:02.766Z,8.1
2018-11-03T01:34:22.255Z,8.4
2018-11-03T01:34:41.795Z,8.5
2018-11-03T01:35:01.318Z,7.9
2018-11-03T01:35:20.867Z,8.3
2018-11-03T01:35:40.365Z,8.3
2018-11-03T01:35:59.913Z,8.5
2018-11-03T01:36:19.433Z,8.7
2018-11-03T01:36:38.980Z,8.4
2018-11-03T01:36:58.492Z,8.7
2018-11-03T01:37:18.032Z,8.8
2018-11-03T01:37:38.504Z,8.4
2018-11-03T01:37:58.066Z,8.6
2018-11-03T01:38:17.595Z,8.3
2018-11-03T01:38:38.097Z,8.7
2018-11-03T01:38:57.622Z,8.5
2018-11-03T01:39:17.151Z,8.9
2018-11-03T01:39:36.676Z,8.7
2018-11-03T01:39:56.216Z,8.8
2018-11-03T01:40:16.724Z,9
2018-11-03T01:40:36.208Z,8.5
2018-11-03T01:40:55.745Z,8.8
2018-11-03T01:41:15.234Z,8.7
2018-11-03T01:41:34.745Z,8.6
2018-11-03T01:41:54.303Z,8.6
2018-11-03T01:42:13.871Z,8.5
2018-11-03T01:42:33.386Z,8.6
2018-11-03T01:42:52.941Z,8.5
2018-11-03T01:43:12.471Z,8.4
2018-11-03T01:43:31.988Z,9
2018-11-03T01:43:51.537Z,9.2
2018-11-03T01:44:11.060Z,8.7
2018-11-03T01:44:30.568Z,8.4
2018-11-03T01:44:50.062Z,9.1
2018-11-03T01:45:10.607Z,9.1
2018-11-03T01:45:30.117Z,8.7
2018-11-03T01:45:49.655Z,8.6
2018-11-03T01:46:09.269Z,8.6
2018-11-03T01:46:28.780Z,8.5
2018-11-03T01:46:48.313Z,9.1
2018-11-03T01:47:07.867Z,9.4
2018-11-03T01:47:27.426Z,8.9
2018-11-03T01:47:48.033Z,8.7
2018-11-03T01:48:07.549Z,8.3
2018-11-03T01:48:27.106Z,8.8
2018-11-03T01:48:46.608Z,8.9
2018-11-03T01:49:06.128Z,8.8
2018-11-03T01:49:25.651Z,9.1
2018-11-03T01:49:45.194Z,8.6
2018-11-03T01:50:04.738Z,8.1
2018-11-03T01:50:24.295Z,8.9
2018-11-03T01:50:43.824Z,9.2
2018-11-03T01:51:03.345Z,9
2018-11-03T01:51:22.886Z,8.6
2018-11-03T01:51:42.429Z,8.6
2018-11-03T01:52:01.969Z,9
2018-11-03T01:52:21.510Z,9
2018-11-03T01:52:41.267Z,9.3
2018-11-03T01:53:00.845Z,9.4
2018-11-03T01:53:20.356Z,9.3
2018-11-03T01:53:39.856Z,8.9
2018-11-03T01:53:59.378Z,9
2018-11-03T01:54:18.919Z,9.3
2018-11-03T01:54:38.446Z,8.8
2018-11-03T01:54:57.968Z,9
2018-11-03T01:55:17.460Z,8.9
2018-11-03T01:55:37.033Z,8.9
2018-11-03T01:55:56.540Z,9.1
2018-11-03T01:56:16.069Z,9.1
2018-11-03T01:56:35.592Z,9.3
2018-11-03T01:56:55.119Z,9.1
2018-11-03T01:57:14.616Z,8.7
2018-11-03T01:57:34.166Z,8.8
2018-11-03T01:57:53.854Z,8.8
2018-11-03T01:58:13.435Z,8.3
2018-11-03T01:58:32.942Z,8.6
2018-11-03T01:58:52.440Z,8.7
2018-11-03T01:59:12.951Z,8.6
2018-11-03T01:59:32.487Z,8.5
2018-11-03T01:59:52.051Z,8.4
2018-11-03T02:00:11.619Z,8.6
2018-11-03T02:00:31.275Z,8.8
2018-11-03T02:00:50.868Z,9
2018-11-03T02:01:10.383Z,8.9
2018-11-03T02:01:29.901Z,8.8
2018-11-03T02:01:49.424Z,9.4
2018-11-03T02:02:08.960Z,9.1
2018-11-03T02:02:28.524Z,9
2018-11-03T02:02:48.057Z,8.8
2018-11-03T02:03:07.626Z,9.3
2018-11-03T02:03:28.128Z,9
2018-11-03T02:03:47.644Z,9.3
2018-11-03T02:04:07.171Z,9.2
2018-11-03T02:04:26.739Z,9.5
2018-11-03T02:04:46.239Z,9.4
2018-11-03T02:05:05.754Z,9.2
2018-11-03T02:05:25.294Z,9.1
2018-11-03T02:05:44.851Z,9.4
2018-11-03T02:06:04.397Z,9.5
2018-11-03T02:06:23.927Z,8.9
2018-11-03T02:06:43.447Z,8.7
2018-11-03T02:07:02.949Z,8.8
2018-11-03T02:07:23.483Z,8.7
2018-11-03T02:07:43.065Z,9
2018-11-03T02:08:02.678Z,8.5
2018-11-03T02:08:23.187Z,8.5
2018-11-03T02:08:42.720Z,8.7
2018-11-03T02:09:02.218Z,8.9
2018-11-03T02:09:21.775Z,8.7
2018-11-03T02:09:42.431Z,8.6
2018-11-03T02:10:02.504Z,8.4
2018-11-03T02:10:22.034Z,8.3
2018-11-03T02:10:41.548Z,8.4
2018-11-03T02:11:01.088Z,8.9
2018-11-03T02:11:20.590Z,8.9
2018-11-03T02:11:40.149Z,8.9
2018-11-03T02:11:59.662Z,8.6
2018-11-03T02:12:19.211Z,8.6
2018-11-03T02:12:38.749Z,8.7
2018-11-03T02:12:58.266Z,8.7
2018-11-03T02:13:17.832Z,9
2018-11-03T02:13:37.360Z,9
2018-11-03T02:13:56.901Z,8.4
2018-11-03T02:14:16.395Z,8.5
2018-11-03T02:14:35.905Z,8.8
2018-11-03T02:14:55.420Z,9
2018-11-03T02:15:14.931Z,8.6
2018-11-03T02:15:34.484Z,8.3
2018-11-03T02:15:54.059Z,8
2018-11-03T02:16:13.568Z,8.4
2018-11-03T02:16:33.107Z,8.4
2018-11-03T02:16:52.643Z,8.5
2018-11-03T02:17:12.190Z,9
2018-11-03T02:17:31.727Z,9
2018-11-03T02:17:51.280Z,8.8
2018-11-03T02:18:10.843Z,8.7
2018-11-03T02:18:30.435Z,8.5
2018-11-03T02:18:49.999Z,8.4
2018-11-03T02:19:10.512Z,8.4
2018-11-03T02:19:30.016Z,8.4
2018-11-03T02:19:49.551Z,8.2
2018-11-03T02:20:09.084Z,8.4
2018-11-03T02:20:28.603Z,8.4
2018-11-03T02:20:48.125Z,8.7
2018-11-03T02:21:07.650Z,8.8
2018-11-03T02:21:27.184Z,9.1
2018-11-03T02:21:46.703Z,9.2
2018-11-03T02:22:06.244Z,8.8
2018-11-03T02:22:25.813Z,8.6
2018-11-03T02:22:45.301Z,8.6
2018-11-03T02:23:04.837Z,8.6
2018-11-03T02:23:24.453Z,8.8
2018-11-03T02:23:43.967Z,8.7
2018-11-03T02:24:03.503Z,8.7
2018-11-03T02:24:22.999Z,9
2018-11-03T02:24:42.526Z,9
2018-11-03T02:25:02.066Z,8.7
2018-11-03T02:25:21.594Z,8.7
2018-11-03T02:25:42.101Z,8.8
2018-11-03T02:26:01.657Z,8.4
2018-11-03T02:26:21.202Z,8.2
2018-11-03T02:26:40.743Z,8.3
2018-11-03T02:27:00.262Z,8.4
2018-11-03T02:27:19.820Z,7.7
2018-11-03T02:27:39.341Z,8.2
2018-11-03T02:27:58.860Z,8.2
2018-11-03T02:28:18.388Z,8.2
2018-11-03T02:28:38.004Z,8.1
2018-11-03T02:28:57.518Z,8.4
2018-11-03T02:29:17.051Z,8.5
2018-11-03T02:29:36.566Z,8.7
2018-11-03T02:29:56.123Z,8.8
2018-11-03T02:30:15.615Z,8.4
2018-11-03T02:30:35.141Z,8.1
2018-11-03T02:30:54.663Z,7.9
2018-11-03T02:31:14.154Z,8.1
2018-11-03T02:31:33.655Z,8.6
2018-11-03T02:31:53.177Z,8.5
2018-11-03T02:32:12.722Z,8.3
2018-11-03T02:32:32.237Z,8.5
2018-11-03T02:32:51.757Z,8.8
2018-11-03T02:33:11.315Z,8.6
2018-11-03T02:33:30.877Z,9
2018-11-03T02:33:50.365Z,8.8
2018-11-03T02:34:09.881Z,8.7
2018-11-03T02:34:29.386Z,8.7
2018-11-03T02:34:48.954Z,8.3
2018-11-03T02:35:08.460Z,8.8
2018-11-03T02:35:28.013Z,8.8
2018-11-03T02:35:48.552Z,8.7
2018-11-03T02:36:08.111Z,8.9
2018-11-03T02:36:27.656Z,9.3
2018-11-03T02:36:47.204Z,9.2
2018-11-03T02:37:06.760Z,8.5
2018-11-03T02:37:26.299Z,8.5
2018-11-03T02:37:45.784Z,8.9
2018-11-03T02:38:05.316Z,8.8
2018-11-03T02:38:24.796Z,8.9
2018-11-03T02:38:44.392Z,9.4
2018-11-03T02:39:03.939Z,9.2
2018-11-03T02:39:23.441Z,9.1
2018-11-03T02:39:43.103Z,9
2018-11-03T02:40:02.608Z,9.1
2018-11-03T02:40:22.128Z,9.1
2018-11-03T02:40:41.658Z,9.1
2018-11-03T02:41:01.151Z,9.2
2018-11-03T02:41:21.654Z,9
2018-11-03T02:41:42.171Z,8.9
2018-11-03T02:42:01.699Z,8.4
2018-11-03T02:42:21.239Z,8.7
2018-11-03T02:42:40.773Z,8.3
2018-11-03T02:43:00.283Z,8.8
2018-11-03T02:43:19.837Z,8.6
2018-11-03T02:43:39.421Z,8.4
2018-11-03T02:43:58.950Z,8.4
2018-11-03T02:44:18.466Z,8.5
2018-11-03T02:44:37.987Z,8.9
2018-11-03T02:44:57.539Z,8.8
2018-11-03T02:45:17.091Z,8.5
2018-11-03T02:45:36.602Z,8.2
2018-11-03T02:45:58.146Z,8.9
2018-11-03T02:46:17.665Z,8.7
2018-11-03T02:46:37.198Z,8.6
2018-11-03T02:46:56.687Z,8.5
2018-11-03T02:47:16.235Z,8.4
2018-11-03T02:47:35.749Z,8.3
2018-11-03T02:47:55.293Z,8.5
2018-11-03T02:48:14.805Z,8.6
2018-11-03T02:48:34.412Z,8.3
2018-11-03T02:48:53.928Z,8.4
2018-11-03T02:49:13.463Z,8.7
2018-11-03T02:49:33.008Z,8.7
2018-11-03T02:49:52.555Z,8.4
2018-11-03T02:50:12.067Z,8.4
2018-11-03T02:50:31.577Z,8.7
2018-11-03T02:50:51.070Z,8.7
2018-11-03T02:51:10.607Z,8.7
2018-11-03T02:51:30.104Z,8.5
2018-11-03T02:51:49.611Z,8.4
2018-11-03T02:52:09.143Z,8.4
2018-11-03T02:52:28.632Z,8.2
2018-11-03T02:52:48.169Z,8.1
2018-11-03T02:53:07.718Z,8
2018-11-03T02:53:27.282Z,7.9
2018-11-03T02:53:46.902Z,7.8
2018-11-03T02:54:06.405Z,8.2
2018-11-03T02:54:25.989Z,8.3
2018-11-03T02:54:46.463Z,7.8
2018-11-03T02:55:05.981Z,7.9
2018-11-03T02:55:25.515Z,8.5
2018-11-03T02:55:45.032Z,7.9
2018-11-03T02:56:04.556Z,8
2018-11-03T02:56:25.083Z,8.3
2018-11-03T02:56:44.595Z,8.5
2018-11-03T02:57:04.116Z,8.2
2018-11-03T02:57:23.638Z,8.1
2018-11-03T02:57:43.140Z,7.7
2018-11-03T02:58:02.636Z,7.6
2018-11-03T02:58:22.176Z,7.8
2018-11-03T02:58:42.743Z,7.9
2018-11-03T02:59:02.232Z,8.2
2018-11-03T02:59:21.767Z,7.9
2018-11-03T02:59:41.248Z,7.7
2018-11-03T03:00:00.791Z,7.7
2018-11-03T03:00:20.343Z,8
2018-11-03T03:00:40.885Z,8
2018-11-03T03:01:00.430Z,8.1
2018-11-03T03:01:19.963Z,8.1
2018-11-03T03:01:39.449Z,7.8
2018-11-03T03:01:58.982Z,7.8
2018-11-03T03:02:18.513Z,7.5
2018-11-03T03:02:38.048Z,7.6
2018-11-03T03:02:57.595Z,8
2018-11-03T03:03:17.113Z,7.8
2018-11-03T03:03:36.655Z,7.9
2018-11-03T03:03:56.266Z,7.9
2018-11-03T03:04:15.777Z,7.7
2018-11-03T03:04:35.311Z,7.9
2018-11-03T03:04:54.859Z,8.1
2018-11-03T03:05:14.433Z,7.7
2018-11-03T03:05:34.942Z,7.7
2018-11-03T03:05:54.474Z,7.8
2018-11-03T03:06:13.984Z,7.6
2018-11-03T03:06:33.501Z,7.9
2018-11-03T03:06:53.033Z,7.8
2018-11-03T03:07:12.559Z,7.9
2018-11-03T03:07:32.105Z,8.1
2018-11-03T03:07:51.643Z,8.1
2018-11-03T03:08:11.134Z,8.4
2018-11-03T03:08:30.651Z,8.6
2018-11-03T03:08:50.187Z,8.5
2018-11-03T03:09:09.765Z,8.2
2018-11-03T03:09:29.323Z,8.1
2018-11-03T03:09:48.855Z,8.7
2018-11-03T03:10:08.386Z,8.5
2018-11-03T03:10:28.878Z,8.4
2018-11-03T03:10:48.405Z,8.6
2018-11-03T03:11:07.958Z,8.4
2018-11-03T03:11:27.597Z,8.6
2018-11-03T03:11:47.009Z,9.3
2018-11-03T03:12:06.538Z,8.8
2018-11-03T03:12:26.052Z,8.5
2018-11-03T03:12:45.622Z,8.3
2018-11-03T03:13:06.152Z,8.6
2018-11-03T03:13:26.647Z,8.8
2018-11-03T03:13:46.167Z,8.7
2018-11-03T03:14:05.784Z,8.2
2018-11-03T03:14:25.314Z,8.5
2018-11-03T03:14:44.827Z,8.5
2018-11-03T03:15:04.408Z,8.2
2018-11-03T03:15:23.967Z,8.3
2018-11-03T03:15:43.543Z,8.3
2018-11-03T03:16:03.082Z,8.4
2018-11-03T03:16:22.624Z,8.2
2018-11-03T03:16:42.124Z,8
2018-11-03T03:17:01.660Z,8.1
2018-11-03T03:17:21.214Z,8
2018-11-03T03:17:40.731Z,8
2018-11-03T03:18:00.499Z,7.7
2018-11-03T03:18:20.003Z,7.9
2018-11-03T03:18:39.554Z,7.8
2018-11-03T03:18:59.064Z,8.1
2018-11-03T03:19:18.844Z,7.8
2018-11-03T03:19:38.360Z,7.7
2018-11-03T03:19:57.856Z,7.4
2018-11-03T03:20:17.384Z,7.7
2018-11-03T03:20:36.919Z,7.7
2018-11-03T03:20:56.449Z,7.6
2018-11-03T03:21:15.964Z,7.5
2018-11-03T03:21:35.474Z,7.1
2018-11-03T03:21:54.996Z,7.3
2018-11-03T03:22:14.495Z,7.8
2018-11-03T03:22:34.040Z,7.5
2018-11-03T03:22:53.553Z,7.2
2018-11-03T03:23:13.112Z,7.4
2018-11-03T03:23:32.689Z,7.1
2018-11-03T03:23:52.201Z,7.3
2018-11-03T03:24:11.810Z,7.5
2018-11-03T03:24:31.363Z,7.4
2018-11-03T03:24:50.867Z,7.2
2018-11-03T03:25:10.416Z,7.6
2018-11-03T03:25:29.950Z,7.6
2018-11-03T03:25:49.521Z,7.6
2018-11-03T03:26:09.100Z,7.6
2018-11-03T03:26:29.667Z,8
2018-11-03T03:26:50.194Z,7.9
2018-11-03T03:27:09.720Z,7.5
2018-11-03T03:27:29.237Z,7.5
2018-11-03T03:27:48.836Z,7.4
2018-11-03T03:28:08.354Z,7.5
2018-11-03T03:28:28.877Z,7.7
2018-11-03T03:28:48.519Z,7.6
2018-11-03T03:29:08.068Z,7.4
2018-11-03T03:29:27.578Z,7.4
2018-11-03T03:29:47.039Z,7.2
2018-11-03T03:30:06.564Z,7.3
2018-11-03T03:30:26.117Z,7.4
2018-11-03T03:30:45.630Z,7.4
2018-11-03T03:31:05.186Z,7.7
2018-11-03T03:31:24.754Z,7.4
2018-11-03T03:31:44.306Z,7.3
2018-11-03T03:32:03.880Z,7.8
2018-11-03T03:32:23.399Z,7.8
2018-11-03T03:32:42.947Z,7.5
2018-11-03T03:33:02.476Z,7.7
2018-11-03T03:33:22.037Z,7.8
2018-11-03T03:33:41.551Z,7.5
2018-11-03T03:34:01.098Z,7.2
2018-11-03T03:34:20.695Z,7.1
2018-11-03T03:34:40.236Z,7.7
2018-11-03T03:35:00.793Z,7.5
2018-11-03T03:35:20.307Z,7
2018-11-03T03:35:39.868Z,6.9
2018-11-03T03:35:59.431Z,7.1
2018-11-03T03:36:18.966Z,7.2
2018-11-03T03:36:38.514Z,6.9
2018-11-03T03:36:58.025Z,7.2
2018-11-03T03:37:17.572Z,6.9
2018-11-03T03:37:37.111Z,7.3
2018-11-03T03:37:56.637Z,7.1
2018-11-03T03:38:16.215Z,7.2
2018-11-03T03:38:35.757Z,7.2
2018-11-03T03:38:55.277Z,6.8
2018-11-03T03:39:14.866Z,6.9
2018-11-03T03:39:34.448Z,7.3
2018-11-03T03:39:53.995Z,7.4
2018-11-03T03:40:13.502Z,7.3
2018-11-03T03:40:33.036Z,7.2
2018-11-03T03:40:52.558Z,6.9
2018-11-03T03:41:12.130Z,7
2018-11-03T03:41:31.637Z,7.2
2018-11-03T03:41:51.162Z,7.7
2018-11-03T03:42:10.764Z,7.6
2018-11-03T03:42:30.257Z,7.7
2018-11-03T03:42:50.772Z,7.1
2018-11-03T03:43:10.296Z,6.8
2018-11-03T03:43:30.806Z,7.2
2018-11-03T03:43:50.321Z,7.4
2018-11-03T03:44:10.840Z,6.9
2018-11-03T03:44:30.452Z,6.9
2018-11-03T03:44:49.953Z,7
2018-11-03T03:45:09.499Z,7.3
2018-11-03T03:45:29.023Z,7
2018-11-03T03:45:48.547Z,7
2018-11-03T03:46:08.075Z,7.2
2018-11-03T03:46:27.651Z,7.2
2018-11-03T03:46:47.242Z,7.4
2018-11-03T03:47:06.782Z,6.9
2018-11-03T03:47:26.345Z,6.8
2018-11-03T03:47:46.845Z,6.6
2018-11-03T03:48:06.369Z,6.9
2018-11-03T03:48:25.934Z,7.1
2018-11-03T03:48:45.456Z,7.2
2018-11-03T03:49:04.966Z,6.5
2018-11-03T03:49:24.522Z,6.7
2018-11-03T03:49:45.239Z,7.1
2018-11-03T03:50:04.761Z,7
2018-11-03T03:50:24.290Z,6.6
2018-11-03T03:50:43.888Z,6.9
2018-11-03T03:51:03.431Z,6.9
2018-11-03T03:51:22.954Z,6.8
2018-11-03T03:51:42.481Z,6.5
2018-11-03T03:52:02.018Z,6.9
2018-11-03T03:52:21.520Z,6.7
2018-11-03T03:52:41.065Z,6.6
2018-11-03T03:53:00.589Z,6.2
2018-11-03T03:53:20.099Z,6.4
2018-11-03T03:53:39.610Z,6.2
2018-11-03T03:53:59.141Z,6.2
2018-11-03T03:54:18.685Z,6.4
2018-11-03T03:54:38.256Z,6.3
2018-11-03T03:54:57.838Z,6
2018-11-03T03:55:18.134Z,6
2018-11-03T03:55:37.654Z,6
2018-11-03T03:55:57.225Z,6.3
2018-11-03T03:56:16.761Z,6.4
2018-11-03T03:56:37.268Z,6.6
2018-11-03T03:56:56.834Z,6.5
2018-11-03T03:57:16.388Z,6.7
2018-11-03T03:57:35.927Z,6.4
2018-11-03T03:57:56.450Z,6.2
2018-11-03T03:58:16.022Z,6.3
2018-11-03T03:58:35.599Z,6.1
2018-11-03T03:58:56.099Z,5.8
2018-11-03T03:59:15.621Z,6.4
2018-11-03T03:59:35.240Z,6.2
2018-11-03T03:59:54.791Z,6
2018-11-03T04:00:14.308Z,6.5
2018-11-03T04:00:33.859Z,6.5
2018-11-03T04:00:53.395Z,6.3
2018-11-03T04:01:12.912Z,6.1
2018-11-03T04:01:32.420Z,6.5
2018-11-03T04:01:51.947Z,6.3
2018-11-03T04:02:11.494Z,6.6
2018-11-03T04:02:31.036Z,6.7
2018-11-03T04:02:50.560Z,7.1
2018-11-03T04:03:10.079Z,6.8
2018-11-03T04:03:29.595Z,6.7
2018-11-03T04:03:50.113Z,6.7
2018-11-03T04:04:09.671Z,6.9
2018-11-03T04:04:29.198Z,6.5
2018-11-03T04:04:48.765Z,6.7
2018-11-03T04:05:08.304Z,6.9
2018-11-03T04:05:27.824Z,6.6
2018-11-03T04:05:47.366Z,6.9
2018-11-03T04:06:06.928Z,6.9
2018-11-03T04:06:26.462Z,6.8
2018-11-03T04:06:46.004Z,6.9
2018-11-03T04:07:05.528Z,6.4
2018-11-03T04:07:25.086Z,6.3
2018-11-03T04:07:44.596Z,6.4
2018-11-03T04:08:04.123Z,6.5
2018-11-03T04:08:23.684Z,6.4
2018-11-03T04:08:43.214Z,6.5
2018-11-03T04:09:02.755Z,6.6
2018-11-03T04:09:22.254Z,6.3
2018-11-03T04:09:41.757Z,6.2
2018-11-03T04:10:01.366Z,6.1
2018-11-03T04:10:20.908Z,6.4
2018-11-03T04:10:40.415Z,6.6
2018-11-03T04:10:59.947Z,6.5
2018-11-03T04:11:19.463Z,6.3
2018-11-03T04:11:38.989Z,5.8
2018-11-03T04:11:58.530Z,6.1
2018-11-03T04:12:18.053Z,6.2
2018-11-03T04:12:37.574Z,6.1
2018-11-03T04:12:57.096Z,6.2
2018-11-03T04:13:17.623Z,5.6
2018-11-03T04:13:37.143Z,5.9
2018-11-03T04:13:56.656Z,5.9
2018-11-03T04:14:16.198Z,5.8
2018-11-03T04:14:35.704Z,5.5
2018-11-03T04:14:55.274Z,6
2018-11-03T04:15:14.797Z,6.1
2018-11-03T04:15:34.337Z,6
2018-11-03T04:15:53.852Z,6
2018-11-03T04:16:13.369Z,5.5
2018-11-03T04:16:32.914Z,5.7
2018-11-03T04:16:52.431Z,5.8
2018-11-03T04:17:11.980Z,5.8
2018-11-03T04:17:31.531Z,5.6
2018-11-03T04:17:51.090Z,5.5
2018-11-03T04:18:10.604Z,5.8
2018-11-03T04:18:30.203Z,5.7
2018-11-03T04:18:49.694Z,5.4
2018-11-03T04:19:09.238Z,5.8
2018-11-03T04:19:28.803Z,5.6
2018-11-03T04:19:48.333Z,5.9
2018-11-03T04:20:07.885Z,5.6
2018-11-03T04:20:27.424Z,5.5
2018-11-03T04:20:46.964Z,5.8
2018-11-03T04:21:06.537Z,5.8
2018-11-03T04:21:26.039Z,5.9
2018-11-03T04:21:45.583Z,5.7
2018-11-03T04:22:05.182Z,5.7
2018-11-03T04:22:24.743Z,6
2018-11-03T04:22:44.283Z,6.4
2018-11-03T04:23:03.829Z,6.3
2018-11-03T04:23:23.390Z,5.9
2018-11-03T04:23:43.054Z,5.8
2018-11-03T04:24:02.600Z,6.1
2018-11-03T04:24:22.140Z,6.4
2018-11-03T04:24:41.687Z,6.2
2018-11-03T04:25:01.299Z,6.4
2018-11-03T04:25:20.854Z,6.3
2018-11-03T04:25:40.401Z,6.1
2018-11-03T04:25:59.930Z,6
2018-11-03T04:26:19.451Z,6.2
2018-11-03T04:26:39.994Z,5.7
2018-11-03T04:26:59.622Z,6
2018-11-03T04:27:19.194Z,6.2
2018-11-03T04:27:38.788Z,6.3
2018-11-03T04:27:58.337Z,6
2018-11-03T04:28:18.889Z,6.3
2018-11-03T04:28:38.531Z,6.1
2018-11-03T04:28:58.073Z,5.7
2018-11-03T04:29:17.649Z,5.8
2018-11-03T04:29:37.198Z,5.8
2018-11-03T04:29:56.875Z,6
2018-11-03T04:30:16.455Z,6.3
2018-11-03T04:30:36.060Z,6
2018-11-03T04:30:55.642Z,5.5